Time;durP1;ratioP1;P1;durP2;ratioP2;P2;SDS_P1;SDS_P2;PMS_P1;PMS_P2;Temp;Humidity;BMP_temperature;BMP_pressure;BME280_temperature;BME280_humidity;BME280_pressure;Samples;Min_cycle;Max_cycle;Signal;HPM_P1;HPM_P2
2022/04/19 00:01:07;;;;;;;9.43;5.50;;;6.40;99.90;;;;;;5034749;28;20057;-77
2022/04/19 00:03:32;;;;;;;12.75;5.53;;;6.40;99.90;;;;;;5035359;28;20029;-75
2022/04/19 00:05:58;;;;;;;10.50;5.63;;;6.30;99.90;;;;;;5017786;28;20457;-75
2022/04/19 00:08:24;;;;;;;9.85;5.35;;;6.30;99.90;;;;;;5034104;28;20603;-78
2022/04/19 00:10:49;;;;;;;8.27;4.78;;;6.20;99.90;;;;;;5016751;28;20048;-77
2022/04/19 00:13:16;;;;;;;7.72;5.07;;;6.10;99.90;;;;;;5034447;28;20083;-77
2022/04/19 00:15:42;;;;;;;8.60;4.93;;;6.00;99.90;;;;;;5017502;28;20112;-79
2022/04/19 00:18:09;;;;;;;8.68;5.18;;;5.90;99.90;;;;;;5016697;28;20083;-77
2022/04/19 00:20:35;;;;;;;8.93;5.30;;;5.90;99.90;;;;;;5017291;28;20029;-76
2022/04/19 00:23:03;;;;;;;9.40;5.38;;;5.80;99.90;;;;;;5016790;28;20061;-79
2022/04/19 00:25:28;;;;;;;7.18;4.63;;;5.80;99.90;;;;;;5034934;28;20040;-78
2022/04/19 00:27:55;;;;;;;7.70;4.40;;;5.70;99.90;;;;;;5018545;28;20029;-76
2022/04/19 00:30:21;;;;;;;8.65;4.65;;;5.70;99.90;;;;;;5018402;28;20441;-76
2022/04/19 00:32:46;;;;;;;7.72;5.38;;;5.70;99.90;;;;;;5036029;28;20090;-76
2022/04/19 00:35:13;;;;;;;7.78;5.22;;;5.60;99.90;;;;;;5035868;28;20111;-77
2022/04/19 00:37:39;;;;;;;9.70;4.78;;;5.50;99.90;;;;;;5035053;28;20036;-77
2022/04/19 00:40:08;;;;;;;9.40;5.13;;;5.50;99.90;;;;;;5036773;28;20124;-77
2022/04/19 00:42:36;;;;;;;10.88;5.57;;;5.40;99.90;;;;;;5034987;28;20091;-77
2022/04/19 00:45:06;;;;;;;10.27;4.93;;;5.40;99.90;;;;;;5018262;28;20464;-79
2022/04/19 00:47:33;;;;;;;9.88;5.15;;;5.30;99.90;;;;;;5017263;28;20036;-77
2022/04/19 00:50:02;;;;;;;9.93;4.90;;;5.30;99.90;;;;;;5034928;28;20024;-75
2022/04/19 00:52:33;;;;;;;8.60;5.28;;;5.30;99.90;;;;;;5017465;28;20026;-77
2022/04/19 00:55:01;;;;;;;10.18;4.85;;;5.20;99.90;;;;;;5035106;28;20036;-80
2022/04/19 00:57:27;;;;;;;8.00;4.90;;;5.00;99.90;;;;;;5016674;28;20025;-77
2022/04/19 00:59:54;;;;;;;9.27;4.90;;;5.00;99.90;;;;;;5034657;28;20029;-78
2022/04/19 01:02:21;;;;;;;10.93;5.47;;;4.90;99.90;;;;;;5030549;28;20044;-77
2022/04/19 01:04:47;;;;;;;8.52;5.03;;;4.80;99.90;;;;;;5036016;28;20022;-79
2022/04/19 01:07:19;;;;;;;7.68;5.40;;;4.80;99.90;;;;;;5036128;28;20021;-79
2022/04/19 01:09:46;;;;;;;8.50;4.88;;;4.70;99.90;;;;;;5042294;28;20025;-79
2022/04/19 01:15:05;;;;;;;8.95;5.10;;;4.70;99.90;;;;;;5040034;28;20029;-78
2022/04/19 01:17:33;;;;;;;8.98;5.20;;;4.70;99.90;;;;;;5040230;28;20421;-76
2022/04/19 01:20:03;;;;;;;9.18;5.15;;;4.60;99.90;;;;;;5037965;28;20049;-76
2022/04/19 01:22:34;;;;;;;7.97;4.82;;;4.60;99.90;;;;;;5020690;28;20049;-75
2022/04/19 01:24:59;;;;;;;10.48;5.20;;;4.50;99.90;;;;;;5019690;28;20292;-76
2022/04/19 01:27:26;;;;;;;11.32;6.20;;;4.50;99.90;;;;;;5038506;28;20021;-76
2022/04/19 01:29:54;;;;;;;8.60;6.05;;;4.40;99.90;;;;;;5037614;28;20033;-77
2022/04/19 01:32:20;;;;;;;12.40;6.70;;;4.50;99.90;;;;;;5037739;28;20075;-76
2022/04/19 01:34:46;;;;;;;9.65;6.68;;;4.60;99.90;;;;;;5020892;28;20409;-77
2022/04/19 01:37:12;;;;;;;12.60;6.82;;;4.80;99.90;;;;;;5038500;28;20022;-77
2022/04/19 01:42:21;;;;;;;11.63;5.10;;;4.80;99.90;;;;;;5039387;28;20611;-77
2022/04/19 01:44:47;;;;;;;10.35;5.38;;;4.60;99.90;;;;;;5020396;28;20052;-78
2022/04/19 01:47:14;;;;;;;11.77;5.75;;;4.50;99.90;;;;;;5021623;28;20036;-76
2022/04/19 01:49:41;;;;;;;8.18;4.93;;;4.40;99.90;;;;;;5021131;28;20116;-76
2022/04/19 01:52:08;;;;;;;8.05;4.80;;;4.20;99.90;;;;;;5037943;28;20025;-78
2022/04/19 01:54:34;;;;;;;10.75;5.72;;;4.10;99.90;;;;;;5037368;28;20083;-79
2022/04/19 01:57:00;;;;;;;10.02;5.97;;;4.00;99.90;;;;;;5038870;28;20440;-78
2022/04/19 01:59:25;;;;;;;11.27;5.93;;;4.00;99.90;;;;;;5020594;28;20097;-79
2022/04/19 02:01:51;;;;;;;11.13;6.28;;;4.00;99.90;;;;;;5038813;28;20062;-78
2022/04/19 02:04:18;;;;;;;12.88;7.45;;;3.90;99.90;;;;;;5021384;28;20029;-76
2022/04/19 02:06:44;;;;;;;11.50;7.20;;;3.90;99.90;;;;;;5019799;28;20030;-77
2022/04/19 02:09:09;;;;;;;11.65;6.97;;;3.90;99.90;;;;;;5019786;28;20032;-78
2022/04/19 02:11:37;;;;;;;13.63;7.43;;;3.90;99.90;;;;;;5037464;28;20100;-78
2022/04/19 02:14:04;;;;;;;14.35;8.60;;;3.90;99.90;;;;;;5038219;28;20025;-77
2022/04/19 02:16:31;;;;;;;20.52;10.73;;;3.90;99.90;;;;;;5038177;28;20060;-80
2022/04/19 02:18:57;;;;;;;14.85;9.63;;;3.90;99.90;;;;;;5036309;28;20124;-77
2022/04/19 02:21:23;;;;;;;18.27;8.75;;;4.10;99.90;;;;;;5036684;28;20057;-76
2022/04/19 02:23:51;;;;;;;19.88;9.60;;;4.10;99.90;;;;;;5038569;28;20033;-76
2022/04/19 02:26:19;;;;;;;16.95;8.38;;;4.10;99.90;;;;;;5038203;28;20116;-77
2022/04/19 02:28:45;;;;;;;13.38;7.32;;;4.10;99.90;;;;;;5036926;28;20031;-77
2022/04/19 02:31:11;;;;;;;10.43;6.03;;;4.00;99.90;;;;;;5019278;28;20030;-77
2022/04/19 02:33:37;;;;;;;9.68;6.63;;;3.90;99.90;;;;;;5037492;28;20079;-78
2022/04/19 02:36:03;;;;;;;11.38;6.10;;;3.80;99.90;;;;;;5037013;28;20075;-77
2022/04/19 02:38:29;;;;;;;9.85;6.10;;;3.70;99.90;;;;;;5037332;28;20469;-78
2022/04/19 02:40:55;;;;;;;12.02;6.95;;;3.60;99.90;;;;;;5037529;28;20022;-79
2022/04/19 02:43:20;;;;;;;11.50;7.70;;;3.60;99.90;;;;;;5019956;28;20040;-78
2022/04/19 02:45:46;;;;;;;10.93;6.45;;;3.60;99.90;;;;;;5020411;28;20033;-78
2022/04/19 02:48:11;;;;;;;11.70;7.03;;;3.60;99.90;;;;;;5036908;28;20471;-76
2022/04/19 02:50:43;;;;;;;11.80;7.13;;;3.50;99.90;;;;;;5018935;28;20477;-76
2022/04/19 02:53:09;;;;;;;12.27;6.70;;;3.40;99.90;;;;;;5036967;28;20116;-80
2022/04/19 02:55:34;;;;;;;15.38;8.13;;;3.30;99.90;;;;;;5036996;28;20037;-80
2022/04/19 02:58:00;;;;;;;14.13;7.30;;;3.30;99.90;;;;;;5036651;28;20488;-80
2022/04/19 03:00:26;;;;;;;15.07;7.90;;;3.30;99.90;;;;;;5036790;28;20104;-75
2022/04/19 03:02:52;;;;;;;14.02;7.50;;;3.40;99.90;;;;;;5036644;28;20102;-77
2022/04/19 03:05:19;;;;;;;9.00;6.28;;;3.40;99.90;;;;;;5036828;28;20036;-78
2022/04/19 03:07:45;;;;;;;19.10;8.60;;;3.40;99.90;;;;;;5019014;28;20115;-77
2022/04/19 03:10:11;;;;;;;24.77;8.20;;;3.50;99.90;;;;;;5036553;28;20032;-78
2022/04/19 03:12:36;;;;;;;28.85;7.80;;;3.50;99.90;;;;;;5018454;28;20503;-78
2022/04/19 03:15:02;;;;;;;17.88;7.45;;;3.50;99.90;;;;;;5019100;28;20057;-79
2022/04/19 03:17:28;;;;;;;11.68;6.15;;;3.50;99.90;;;;;;5036210;28;20028;-77
2022/04/19 03:19:54;;;;;;;22.83;7.90;;;3.40;99.90;;;;;;5036427;28;20097;-79
2022/04/19 03:22:19;;;;;;;16.42;9.60;;;3.40;99.90;;;;;;5036634;28;20037;-78
2022/04/19 03:27:41;;;;;;;18.23;10.02;;;3.70;99.90;;;;;;5035871;28;20444;-76
2022/04/19 03:30:09;;;;;;;21.85;10.48;;;4.30;99.90;;;;;;5035990;28;20021;-76
2022/04/19 03:32:36;;;;;;;20.58;10.07;;;4.80;99.90;;;;;;5035891;28;20029;-79
2022/04/19 03:35:02;;;;;;;17.73;9.85;;;5.30;99.90;;;;;;5017987;28;20029;-77
2022/04/19 03:37:30;;;;;;;16.15;8.93;;;5.50;99.90;;;;;;5035995;28;20028;-77
2022/04/19 03:39:55;;;;;;;13.65;8.85;;;5.70;99.90;;;;;;5034489;28;20109;-76
2022/04/19 03:42:21;;;;;;;14.60;8.82;;;5.80;99.90;;;;;;5034882;28;20053;-75
2022/04/19 03:44:47;;;;;;;12.82;7.07;;;5.90;99.90;;;;;;5034563;28;20101;-78
2022/04/19 03:47:12;;;;;;;10.48;6.70;;;5.80;99.90;;;;;;5034732;28;20028;-75
2022/04/19 03:49:42;;;;;;;13.95;7.10;;;5.50;99.90;;;;;;5034176;28;20100;-76
2022/04/19 03:52:08;;;;;;;10.57;6.20;;;5.20;99.90;;;;;;5017095;28;20049;-76
2022/04/19 03:54:34;;;;;;;11.98;5.53;;;5.00;99.90;;;;;;5034763;28;20156;-76
2022/04/19 03:57:10;;;;;;;10.38;6.22;;;4.60;99.90;;;;;;5034834;28;20029;-76
2022/04/19 03:59:41;;;;;;;10.02;6.22;;;4.30;99.90;;;;;;5016480;28;20052;-78
2022/04/19 04:02:07;;;;;;;10.35;6.90;;;4.10;99.90;;;;;;5034630;28;20022;-76
2022/04/19 04:04:35;;;;;;;11.27;6.57;;;3.90;99.90;;;;;;5035096;28;20133;-76
2022/04/19 04:07:02;;;;;;;17.73;7.82;;;3.80;99.90;;;;;;5034560;28;20023;-78
2022/04/19 04:09:35;;;;;;;13.15;7.35;;;3.70;99.90;;;;;;5034781;28;20029;-77
2022/04/19 04:12:02;;;;;;;19.27;8.07;;;3.60;99.90;;;;;;5017080;28;20090;-76
2022/04/19 04:14:28;;;;;;;15.13;8.75;;;3.70;99.90;;;;;;5035803;28;20389;-77
2022/04/19 04:16:54;;;;;;;13.35;7.15;;;3.70;99.90;;;;;;5035265;28;20029;-78
2022/04/19 04:19:20;;;;;;;12.13;6.40;;;3.60;99.90;;;;;;5035322;28;20124;-76
2022/04/19 04:21:45;;;;;;;12.20;7.50;;;3.60;99.90;;;;;;5036267;28;20032;-79
2022/04/19 04:24:11;;;;;;;13.75;7.50;;;3.50;99.90;;;;;;5035382;28;20489;-77
2022/04/19 04:26:36;;;;;;;12.23;7.28;;;3.40;99.90;;;;;;5034705;28;20042;-78
2022/04/19 04:29:02;;;;;;;12.77;6.90;;;3.40;99.90;;;;;;5034145;28;20029;-79
2022/04/19 04:31:27;;;;;;;13.60;7.18;;;3.30;99.90;;;;;;5034399;28;20529;-80
2022/04/19 04:33:53;;;;;;;16.90;8.55;;;3.20;99.90;;;;;;5034681;28;20025;-78
2022/04/19 04:36:19;;;;;;;12.85;7.07;;;3.20;99.90;;;;;;5039778;28;20144;-79
2022/04/19 04:38:45;;;;;;;15.60;7.72;;;3.20;99.90;;;;;;5026828;28;20038;-75
2022/04/19 04:41:11;;;;;;;17.13;8.23;;;3.10;99.90;;;;;;5041293;28;20037;-77
2022/04/19 04:43:38;;;;;;;13.02;7.93;;;3.00;99.90;;;;;;5036120;28;20029;-76
2022/04/19 04:51:32;;;;;;;15.35;8.02;;;2.90;99.90;;;;;;5035649;28;20029;-78
2022/04/19 04:53:58;;;;;;;20.77;8.23;;;2.90;99.90;;;;;;5017740;28;20022;-78
2022/04/19 04:56:23;;;;;;;16.65;8.18;;;3.00;99.90;;;;;;5035361;28;20045;-78
2022/04/19 04:58:49;;;;;;;14.90;7.65;;;3.00;99.90;;;;;;5017317;28;20079;-77
2022/04/19 05:01:15;;;;;;;21.92;8.45;;;3.00;99.90;;;;;;5017955;28;20128;-77
2022/04/19 05:03:40;;;;;;;14.63;8.35;;;3.00;99.90;;;;;;5036276;28;20029;-76
2022/04/19 05:06:06;;;;;;;16.98;8.13;;;3.10;99.90;;;;;;5036011;28;20034;-76
2022/04/19 05:08:32;;;;;;;20.55;9.18;;;3.10;99.90;;;;;;5017313;28;20036;-78
2022/04/19 05:10:58;;;;;;;19.38;7.43;;;3.20;99.90;;;;;;5035036;28;20033;-78
2022/04/19 05:13:23;;;;;;;18.95;7.93;;;3.20;99.90;;;;;;5035441;28;20018;-77
2022/04/19 05:15:49;;;;;;;27.17;9.65;;;3.30;99.90;;;;;;5017156;28;20036;-78
2022/04/19 05:18:15;;;;;;;19.60;8.10;;;3.40;99.90;;;;;;5016935;28;20040;-75
2022/04/19 05:20:42;;;;;;;14.75;8.60;;;3.60;99.90;;;;;;5035214;28;20029;-77
2022/04/19 05:23:07;;;;;;;15.43;8.13;;;3.80;99.90;;;;;;5034139;28;20469;-77
2022/04/19 05:25:33;;;;;;;16.60;8.43;;;4.00;99.90;;;;;;5015897;28;20045;-76
2022/04/19 05:27:59;;;;;;;18.98;8.65;;;4.20;99.90;;;;;;5035482;28;20101;-77
2022/04/19 05:30:24;;;;;;;22.95;8.27;;;4.50;99.90;;;;;;5052603;28;20034;-76
2022/04/19 05:32:50;;;;;;;20.27;7.40;;;4.60;99.90;;;;;;5052582;28;20240;-76
2022/04/19 05:35:15;;;;;;;23.08;7.85;;;4.90;99.90;;;;;;5027665;28;20032;-77
2022/04/19 05:37:41;;;;;;;14.10;6.97;;;5.10;99.90;;;;;;5017723;28;20029;-74
2022/04/19 05:40:07;;;;;;;16.35;6.88;;;5.30;99.90;;;;;;5015176;28;20045;-78
2022/04/19 05:42:33;;;;;;;17.25;7.65;;;5.60;99.90;;;;;;5015252;28;20052;-76
2022/04/19 05:44:58;;;;;;;14.07;6.68;;;5.80;99.90;;;;;;5014786;28;20036;-75
2022/04/19 05:47:24;;;;;;;12.98;6.68;;;6.00;99.90;;;;;;5014416;28;20030;-75
2022/04/19 05:49:51;;;;;;;10.57;6.03;;;6.20;99.90;;;;;;5014361;28;20083;-78
2022/04/19 05:52:17;;;;;;;13.07;6.25;;;6.40;99.90;;;;;;5014048;28;20045;-77
2022/04/19 05:54:43;;;;;;;13.02;6.45;;;6.70;99.90;;;;;;5017227;28;20075;-77
2022/04/19 05:57:10;;;;;;;11.75;6.25;;;7.00;99.90;;;;;;5035544;28;20037;-76
2022/04/19 05:59:36;;;;;;;15.25;7.68;;;7.30;99.90;;;;;;5035486;28;20029;-76
2022/04/19 06:04:52;;;;;;;14.93;7.78;;;8.00;99.90;;;;;;5035805;28;20032;-76
2022/04/19 06:07:19;;;;;;;18.85;8.65;;;8.50;99.90;;;;;;5035225;28;20029;-75
2022/04/19 06:09:45;;;;;;;13.85;8.52;;;8.90;99.90;;;;;;5017552;28;20112;-77
2022/04/19 06:12:10;;;;;;;12.73;7.57;;;9.20;99.90;;;;;;5018286;28;20106;-77
2022/04/19 06:14:37;;;;;;;12.75;8.60;;;9.60;99.90;;;;;;5018305;28;20386;-76
2022/04/19 06:17:03;;;;;;;12.95;8.35;;;9.90;99.90;;;;;;5036089;28;20033;-77
2022/04/19 06:19:29;;;;;;;10.95;7.82;;;10.00;99.90;;;;;;5035235;28;20378;-76
2022/04/19 06:21:57;;;;;;;13.55;8.15;;;10.20;99.90;;;;;;5035766;28;20026;-76
2022/04/19 06:24:24;;;;;;;18.38;8.90;;;10.40;99.90;;;;;;5035832;28;20503;-76
2022/04/19 06:26:49;;;;;;;12.10;8.18;;;10.60;99.90;;;;;;5017638;28;20142;-76
2022/04/19 06:29:16;;;;;;;15.45;9.30;;;10.80;99.90;;;;;;5034994;28;20112;-76
2022/04/19 06:31:43;;;;;;;16.48;9.20;;;10.90;99.90;;;;;;5035713;28;20021;-76
2022/04/19 06:34:09;;;;;;;13.27;8.50;;;11.10;99.90;;;;;;5018729;28;20021;-75
2022/04/19 06:36:35;;;;;;;14.23;8.05;;;11.00;99.80;;;;;;5035334;28;20491;-76
2022/04/19 06:39:00;;;;;;;16.77;8.88;;;11.10;99.90;;;;;;5035461;28;20040;-78
2022/04/19 06:41:26;;;;;;;17.17;8.40;;;11.20;99.60;;;;;;5035753;28;20030;-77
2022/04/19 06:43:52;;;;;;;14.10;7.95;;;11.20;97.30;;;;;;5035589;28;20034;-77
2022/04/19 06:46:19;;;;;;;12.80;7.18;;;11.40;96.30;;;;;;5036202;28;20045;-78
2022/04/19 06:48:44;;;;;;;10.73;7.55;;;11.50;96.50;;;;;;5034480;28;20036;-77
2022/04/19 06:51:10;;;;;;;15.48;7.40;;;11.80;94.10;;;;;;5017344;28;20022;-78
2022/04/19 06:53:36;;;;;;;11.55;7.05;;;12.10;94.10;;;;;;5034893;28;20029;-77
2022/04/19 06:56:04;;;;;;;12.32;8.23;;;12.20;92.00;;;;;;5016753;28;20026;-76
2022/04/19 06:58:30;;;;;;;11.63;7.80;;;12.40;89.70;;;;;;5016706;28;20032;-77
2022/04/19 07:00:56;;;;;;;14.18;7.88;;;12.50;90.00;;;;;;5035017;28;20074;-78
2022/04/19 07:03:24;;;;;;;11.88;7.28;;;12.60;88.70;;;;;;5036227;28;20431;-75
2022/04/19 07:05:50;;;;;;;13.88;7.28;;;12.50;84.80;;;;;;5018239;28;20028;-77
2022/04/19 07:08:15;;;;;;;12.60;8.65;;;12.60;85.40;;;;;;5035344;28;20392;-75
2022/04/19 07:10:42;;;;;;;13.80;8.93;;;12.80;85.40;;;;;;5017083;28;20026;-78
2022/04/19 07:13:09;;;;;;;13.43;8.18;;;13.00;81.40;;;;;;5017089;28;20053;-78
2022/04/19 07:15:35;;;;;;;12.45;7.32;;;13.00;81.40;;;;;;5016655;28;20045;-77
2022/04/19 07:18:01;;;;;;;12.25;8.35;;;13.30;80.90;;;;;;5034689;28;20087;-78
2022/04/19 07:28:39;;;;;;;14.73;7.55;;;14.20;73.90;;;;;;5033839;28;20396;-78
2022/04/19 07:31:05;;;;;;;13.43;8.15;;;14.30;71.40;;;;;;5033470;28;20021;-77
2022/04/19 07:33:31;;;;;;;16.17;8.65;;;14.70;70.70;;;;;;5033509;28;20496;-75
2022/04/19 07:35:57;;;;;;;13.55;7.97;;;14.70;69.90;;;;;;5033323;28;20128;-77
2022/04/19 07:38:23;;;;;;;13.30;7.45;;;14.90;68.00;;;;;;5033877;28;20508;-74
2022/04/19 07:40:49;;;;;;;17.48;8.52;;;15.20;67.60;;;;;;5035566;28;20041;-78
2022/04/19 07:43:15;;;;;;;15.25;7.85;;;15.10;65.70;;;;;;5034552;28;20029;-77
2022/04/19 07:45:41;;;;;;;11.73;7.13;;;15.20;67.10;;;;;;5034051;28;20439;-77
2022/04/19 07:48:07;;;;;;;11.48;7.07;;;15.50;65.50;;;;;;5034377;28;20032;-76
2022/04/19 07:50:37;;;;;;;13.68;7.57;;;15.90;64.50;;;;;;5035765;28;20457;-76
2022/04/19 07:53:03;;;;;;;13.48;6.88;;;16.10;64.20;;;;;;5034917;28;20488;-76
2022/04/19 07:55:28;;;;;;;12.52;7.97;;;16.30;61.70;;;;;;5017781;28;20025;-78
2022/04/19 07:57:54;;;;;;;10.68;7.13;;;16.50;59.10;;;;;;5036570;28;20036;-77
2022/04/19 08:00:21;;;;;;;11.63;6.70;;;16.50;59.00;;;;;;5036971;28;20052;-78
2022/04/19 08:02:47;;;;;;;10.50;6.75;;;16.60;58.30;;;;;;5017902;28;20053;-78
2022/04/19 08:05:12;;;;;;;12.68;7.60;;;16.50;58.10;;;;;;5036239;28;20096;-78
2022/04/19 08:07:38;;;;;;;11.15;6.75;;;16.50;57.90;;;;;;5017351;28;20461;-76
2022/04/19 08:10:05;;;;;;;13.15;6.97;;;16.50;58.00;;;;;;5017207;28;20033;-77
2022/04/19 08:12:31;;;;;;;9.95;6.53;;;16.70;57.00;;;;;;5016777;28;20025;-76
2022/04/19 08:14:57;;;;;;;11.38;6.30;;;17.10;56.50;;;;;;5034773;28;20025;-76
2022/04/19 08:17:23;;;;;;;8.80;6.45;;;17.00;55.60;;;;;;5033665;28;20100;-78
2022/04/19 08:19:48;;;;;;;9.23;5.65;;;17.10;55.80;;;;;;5034602;28;20033;-76
2022/04/19 08:22:14;;;;;;;8.45;5.85;;;17.10;54.90;;;;;;5017692;28;20026;-76
2022/04/19 08:24:40;;;;;;;8.50;6.00;;;17.20;55.10;;;;;;5016524;28;20040;-76
2022/04/19 08:27:06;;;;;;;11.25;6.53;;;17.10;55.30;;;;;;5016744;28;20112;-77
2022/04/19 08:29:32;;;;;;;8.02;6.00;;;17.60;55.40;;;;;;5015938;28;20060;-76
2022/04/19 08:31:57;;;;;;;9.68;6.20;;;17.90;55.70;;;;;;5016789;28;20028;-76
2022/04/19 08:34:23;;;;;;;7.93;5.85;;;18.40;54.60;;;;;;5034115;28;20025;-78
2022/04/19 08:36:48;;;;;;;9.38;6.78;;;18.80;54.40;;;;;;5045396;28;20031;-77
2022/04/19 08:39:14;;;;;;;7.82;6.32;;;19.10;52.60;;;;;;5034073;28;20108;-78
2022/04/19 08:41:41;;;;;;;8.13;6.13;;;19.20;52.70;;;;;;5034224;28;20076;-79
2022/04/19 08:44:08;;;;;;;8.15;6.03;;;19.10;53.20;;;;;;5015823;28;20029;-76
2022/04/19 08:46:38;;;;;;;7.05;5.15;;;19.00;52.90;;;;;;5033204;28;20021;-77
2022/04/19 08:49:04;;;;;;;10.90;6.20;;;19.20;52.90;;;;;;5014473;28;20025;-78
2022/04/19 08:51:34;;;;;;;8.02;5.60;;;19.10;52.30;;;;;;5033635;28;20106;-77
2022/04/19 08:59:30;;;;;;;7.32;5.22;;;19.50;52.60;;;;;;5033528;28;20503;-77
2022/04/19 09:01:56;;;;;;;8.50;4.97;;;19.60;50.90;;;;;;5034412;28;20063;-76
2022/04/19 09:04:22;;;;;;;6.78;5.53;;;19.60;51.60;;;;;;5015253;28;20127;-78
2022/04/19 09:06:56;;;;;;;6.47;4.85;;;19.20;51.00;;;;;;5015499;28;20061;-79
2022/04/19 09:09:26;;;;;;;7.78;4.85;;;19.20;51.90;;;;;;5033216;28;20028;-78
2022/04/19 09:11:54;;;;;;;7.57;5.63;;;19.30;52.50;;;;;;5033869;28;20439;-81
2022/04/19 09:14:22;;;;;;;8.32;5.55;;;19.30;52.70;;;;;;5033230;28;20026;-79
2022/04/19 09:16:53;;;;;;;6.85;4.60;;;19.40;52.10;;;;;;5016318;28;20030;-75
2022/04/19 09:19:30;;;;;;;8.70;5.32;;;19.20;51.60;;;;;;5033295;28;20079;-77
2022/04/19 09:21:57;;;;;;;7.43;5.28;;;18.90;52.60;;;;;;5033530;28;20025;-79
2022/04/19 09:24:23;;;;;;;8.18;4.57;;;19.20;52.70;;;;;;5014597;28;20048;-78
2022/04/19 09:26:49;;;;;;;6.75;4.38;;;19.10;51.60;;;;;;5053700;23;20044;-80
2022/04/19 09:29:21;;;;;;;7.15;5.07;;;19.30;51.60;;;;;;5058320;28;20025;-79
2022/04/19 09:31:50;;;;;;;6.85;5.05;;;19.40;51.00;;;;;;5040585;28;20021;-81
2022/04/19 09:34:31;;;;;;;7.25;4.88;;;19.50;51.60;;;;;;5058291;28;20013;-81
2022/04/19 09:37:13;;;;;;;7.88;4.28;;;19.60;50.60;;;;;;5077807;28;20025;-80
2022/04/19 09:39:41;;;;;;;6.00;3.58;;;19.50;50.20;;;;;;5059824;28;20048;-80
2022/04/19 09:42:13;;;;;;;9.68;4.70;;;19.60;50.30;;;;;;5077881;28;20078;-81
2022/04/19 09:44:44;;;;;;;5.10;4.13;;;19.70;49.70;;;;;;5064165;28;20077;-80
2022/04/19 09:47:13;;;;;;;8.98;4.40;;;19.50;50.00;;;;;;5098561;28;20028;-79
2022/04/19 09:49:42;;;;;;;8.30;5.20;;;19.20;51.20;;;;;;5098062;28;20414;-79
2022/04/19 09:52:08;;;;;;;11.02;5.10;;;19.20;51.20;;;;;;5097858;28;20451;-79
2022/04/19 09:54:33;;;;;;;9.30;4.80;;;19.20;54.00;;;;;;5097563;28;20052;-80
2022/04/19 09:57:09;;;;;;;10.13;5.90;;;19.50;51.70;;;;;;5097976;28;20024;-80
2022/04/19 09:59:46;;;;;;;10.13;5.90;;;19.40;51.70;;;;;;5097664;28;20030;-80
2022/04/19 10:10:28;;;;;;;10.20;5.38;;;20.00;51.00;;;;;;5097859;28;20108;-77
2022/04/19 10:12:57;;;;;;;8.85;5.35;;;20.00;50.50;;;;;;5097797;28;20487;-79
2022/04/19 10:15:22;;;;;;;8.80;5.43;;;20.30;50.10;;;;;;5098058;28;20094;-82
2022/04/19 10:17:49;;;;;;;8.73;5.65;;;20.30;49.60;;;;;;5098541;28;20024;-81
2022/04/19 10:20:16;;;;;;;10.35;5.72;;;20.10;50.50;;;;;;5098513;28;20024;-80
2022/04/19 10:22:46;;;;;;;9.75;5.35;;;20.00;51.00;;;;;;5099097;28;20395;-78
2022/04/19 10:25:15;;;;;;;7.28;4.80;;;20.00;51.00;;;;;;5098564;28;20119;-81
2022/04/19 10:27:42;;;;;;;6.30;3.75;;;19.70;50.30;;;;;;5098681;28;20111;-81
2022/04/19 10:30:15;;;;;;;9.30;4.90;;;19.80;51.20;;;;;;5083577;28;20028;-80
2022/04/19 10:32:40;;;;;;;8.68;4.60;;;20.00;51.00;;;;;;5102279;28;20479;-80
2022/04/19 10:35:06;;;;;;;8.48;5.07;;;20.10;51.30;;;;;;5079456;28;20024;-80
2022/04/19 10:37:32;;;;;;;9.35;4.47;;;20.10;51.20;;;;;;5098493;28;20020;-78
2022/04/19 10:39:58;;;;;;;7.78;4.65;;;20.10;50.20;;;;;;5095961;28;20020;-78
2022/04/19 10:42:32;;;;;;;8.57;5.00;;;20.50;50.60;;;;;;5078769;28;20090;-79
2022/04/19 10:45:14;;;;;;;8.32;4.68;;;20.70;48.80;;;;;;5072148;28;20483;-80
2022/04/19 10:47:51;;;;;;;7.07;4.03;;;20.60;48.30;;;;;;5077651;28;20511;-79
2022/04/19 10:50:29;;;;;;;8.18;4.90;;;20.50;49.10;;;;;;5076903;28;20044;-81
2022/04/19 10:53:04;;;;;;;7.82;4.95;;;20.30;49.60;;;;;;5077144;28;20049;-79
2022/04/19 10:55:56;;;;;;;7.32;4.97;;;20.10;49.70;;;;;;5059012;28;20052;-79
2022/04/19 10:58:38;;;;;;;7.07;4.22;;;20.30;50.40;;;;;;5076899;28;20480;-80
2022/04/19 11:01:05;;;;;;;8.85;4.80;;;20.20;50.30;;;;;;5059266;28;20434;-80
2022/04/19 11:03:37;;;;;;;6.57;4.15;;;20.10;52.00;;;;;;5059281;28;20024;-77
2022/04/19 11:06:05;;;;;;;10.73;5.25;;;20.10;52.00;;;;;;5059374;28;20028;-80
2022/04/19 11:08:41;;;;;;;8.60;5.10;;;20.50;50.20;;;;;;5077357;28;20029;-79
2022/04/19 11:11:20;;;;;;;8.63;4.57;;;20.50;49.40;;;;;;5059406;28;20020;-78
2022/04/19 11:14:21;;;;;;;6.72;4.05;;;20.70;50.20;;;;;;5076665;28;20047;-80
2022/04/19 11:16:51;;;;;;;8.00;4.85;;;20.90;48.30;;;;;;5078977;28;20070;-82
2022/04/19 11:19:23;;;;;;;9.50;5.18;;;20.70;50.40;;;;;;5059646;28;20542;-79
2022/04/19 11:21:56;;;;;;;9.90;4.57;;;20.60;50.10;;;;;;5078976;28;20088;-79
2022/04/19 11:24:59;;;;;;;7.88;4.82;;;20.80;49.60;;;;;;5084471;28;20051;-81
2022/04/19 11:27:53;;;;;;;8.93;4.68;;;20.90;50.10;;;;;;5072413;28;20092;-80
2022/04/19 11:30:26;;;;;;;8.00;5.05;;;21.00;47.90;;;;;;5080936;28;20104;-78
2022/04/19 11:32:58;;;;;;;7.47;4.78;;;21.10;48.00;;;;;;5061192;28;20027;-80
2022/04/19 11:35:26;;;;;;;8.52;4.68;;;21.00;47.70;;;;;;5087398;28;20071;-82
2022/04/19 11:37:52;;;;;;;8.25;4.60;;;21.10;48.40;;;;;;5071919;28;20025;-79
2022/04/19 11:48:47;;;;;;;7.57;5.18;;;20.90;49.60;;;;;;5105347;28;20026;-81
2022/04/19 11:51:15;;;;;;;8.00;5.28;;;21.00;49.80;;;;;;5076935;28;20020;-80
2022/04/19 11:53:43;;;;;;;10.20;6.03;;;21.20;50.00;;;;;;5096675;28;20054;-80
2022/04/19 11:56:09;;;;;;;10.93;6.00;;;20.90;51.40;;;;;;5098589;28;20020;-81
2022/04/19 11:58:36;;;;;;;8.20;5.53;;;20.70;50.40;;;;;;5079234;28;20441;-80
2022/04/19 12:01:05;;;;;;;8.85;5.70;;;20.70;52.20;;;;;;5096169;28;20380;-81
2022/04/19 12:03:36;;;;;;;10.27;5.82;;;20.90;50.80;;;;;;5095951;28;20107;-79
2022/04/19 12:06:09;;;;;;;9.23;5.57;;;21.10;49.20;;;;;;5077826;28;20024;-81
2022/04/19 12:08:41;;;;;;;7.20;5.10;;;21.40;48.30;;;;;;5078636;28;20043;-80
2022/04/19 12:11:09;;;;;;;7.35;5.10;;;21.20;48.50;;;;;;5096960;28;20036;-82
2022/04/19 12:13:36;;;;;;;8.27;5.30;;;21.10;49.10;;;;;;5101672;28;20020;-81
2022/04/19 12:16:07;;;;;;;6.97;4.88;;;20.90;50.00;;;;;;5083315;28;20031;-80
2022/04/19 12:18:36;;;;;;;15.20;5.03;;;21.00;51.70;;;;;;5102865;28;20039;-82
2022/04/19 12:21:04;;;;;;;9.38;4.65;;;21.30;51.70;;;;;;5104728;28;20035;-80
2022/04/19 12:23:30;;;;;;;7.00;4.53;;;21.40;50.00;;;;;;5087287;28;20029;-77
2022/04/19 12:26:01;;;;;;;7.75;4.32;;;21.40;50.40;;;;;;5085277;28;20089;-79
2022/04/19 12:28:44;;;;;;;5.93;4.22;;;21.30;50.10;;;;;;5100350;28;20046;-80
2022/04/19 12:31:32;;;;;;;7.75;3.88;;;21.30;50.70;;;;;;5104705;28;20050;-79
2022/04/19 12:34:00;;;;;;;5.07;3.70;;;21.20;49.00;;;;;;5108437;28;20364;-81
2022/04/19 12:36:26;;;;;;;6.78;4.72;;;21.10;48.40;;;;;;5077929;28;20121;-80
2022/04/19 12:39:03;;;;;;;7.47;4.25;;;21.00;49.70;;;;;;5094466;28;20020;-79
2022/04/19 12:41:36;;;;;;;5.97;4.20;;;21.20;49.20;;;;;;5094459;28;20031;-79
2022/04/19 12:44:03;;;;;;;6.68;3.97;;;20.80;50.10;;;;;;5095195;28;20391;-80
2022/04/19 12:46:30;;;;;;;5.93;4.45;;;20.60;50.40;;;;;;5075847;28;20440;-78
2022/04/19 12:48:56;;;;;;;5.93;4.05;;;20.50;49.70;;;;;;5073982;28;20487;-78
2022/04/19 12:51:26;;;;;;;5.35;3.63;;;20.60;49.80;;;;;;5056493;28;20097;-77
2022/04/19 12:54:05;;;;;;;5.75;3.42;;;20.70;49.80;;;;;;5074201;28;20495;-77
2022/04/19 12:56:57;;;;;;;5.93;3.45;;;20.80;49.40;;;;;;5056633;28;20555;-80
2022/04/19 12:59:23;;;;;;;6.65;3.80;;;20.60;50.40;;;;;;5075583;28;20043;-78
2022/04/19 13:01:48;;;;;;;6.82;4.13;;;20.40;49.70;;;;;;5057117;28;20024;-81
2022/04/19 13:04:14;;;;;;;6.28;3.72;;;20.30;50.90;;;;;;5079659;28;20104;-80
2022/04/19 13:12:17;;;;;;;7.20;3.38;;;20.40;48.80;;;;;;5077082;28;20040;-78
2022/04/19 13:14:49;;;;;;;5.78;2.75;;;20.40;48.70;;;;;;5057478;28;20035;-79
2022/04/19 13:17:15;;;;;;;5.10;2.58;;;20.50;48.20;;;;;;5056861;28;20111;-77
2022/04/19 13:19:42;;;;;;;4.18;2.95;;;20.50;48.50;;;;;;5078037;28;20020;-80
2022/04/19 13:22:09;;;;;;;5.10;3.33;;;20.40;48.70;;;;;;5058322;28;20047;-78
2022/04/19 13:24:36;;;;;;;7.28;3.17;;;20.10;49.60;;;;;;5074078;28;20021;-77
2022/04/19 13:27:03;;;;;;;7.93;3.85;;;19.90;49.60;;;;;;5057284;28;20221;-78
2022/04/19 13:29:29;;;;;;;6.50;3.13;;;19.70;50.00;;;;;;5055838;28;20029;-78
2022/04/19 13:31:55;;;;;;;6.47;3.35;;;19.80;51.10;;;;;;5074605;28;20099;-79
2022/04/19 13:34:22;;;;;;;7.25;4.00;;;20.20;50.60;;;;;;5074177;28;20044;-77
2022/04/19 13:36:48;;;;;;;5.45;3.45;;;20.30;50.40;;;;;;5074574;28;20016;-77
2022/04/19 13:39:14;;;;;;;5.03;3.20;;;20.30;50.70;;;;;;5073870;28;20024;-80
2022/04/19 13:41:41;;;;;;;4.13;3.30;;;20.40;52.00;;;;;;5075065;28;20032;-79